sensor_id;sensor_type;location;lat;lon;timestamp;temperature;humidity
55064;DHT22;40963;52.168;21.296;2022-07-17T00:00:41;12.20;99.90
55064;DHT22;40963;52.168;21.296;2022-07-17T00:03:11;12.30;99.90
55064;DHT22;40963;52.168;21.296;2022-07-17T00:05:38;12.30;99.90
55064;DHT22;40963;52.168;21.296;2022-07-17T00:08:08;12.30;99.90
55064;DHT22;40963;52.168;21.296;2022-07-17T00:10:40;12.20;99.90
55064;DHT22;40963;52.168;21.296;2022-07-17T00:13:06;12.20;99.90
55064;DHT22;40963;52.168;21.296;2022-07-17T00:15:33;12.20;99.90
55064;DHT22;40963;52.168;21.296;2022-07-17T00:17:58;12.20;99.90
55064;DHT22;40963;52.168;21.296;2022-07-17T00:20:25;12.20;99.90
55064;DHT22;40963;52.168;21.296;2022-07-17T00:22:54;12.20;99.90
55064;DHT22;40963;52.168;21.296;2022-07-17T00:25:24;12.20;99.90
55064;DHT22;40963;52.168;21.296;2022-07-17T00:27:50;12.20;99.90
55064;DHT22;40963;52.168;21.296;2022-07-17T00:30:16;12.20;99.90
55064;DHT22;40963;52.168;21.296;2022-07-17T00:32:42;12.10;99.90
55064;DHT22;40963;52.168;21.296;2022-07-17T00:35:09;12.10;99.90
55064;DHT22;40963;52.168;21.296;2022-07-17T00:37:43;12.10;99.90
55064;DHT22;40963;52.168;21.296;2022-07-17T00:40:11;12.20;99.90
55064;DHT22;40963;52.168;21.296;2022-07-17T00:42:41;12.20;99.90
55064;DHT22;40963;52.168;21.296;2022-07-17T00:45:12;12.20;99.90
55064;DHT22;40963;52.168;21.296;2022-07-17T00:47:57;12.20;99.90
55064;DHT22;40963;52.168;21.296;2022-07-17T00:50:26;12.20;99.90
55064;DHT22;40963;52.168;21.296;2022-07-17T00:52:52;12.20;99.90
55064;DHT22;40963;52.168;21.296;2022-07-17T00:55:18;12.20;99.90
55064;DHT22;40963;52.168;21.296;2022-07-17T00:57:46;12.20;99.90
55064;DHT22;40963;52.168;21.296;2022-07-17T01:00:13;12.20;99.90
55064;DHT22;40963;52.168;21.296;2022-07-17T01:02:39;12.30;99.90
55064;DHT22;40963;52.168;21.296;2022-07-17T01:05:05;12.20;99.90
55064;DHT22;40963;52.168;21.296;2022-07-17T01:07:32;12.30;99.90
55064;DHT22;40963;52.168;21.296;2022-07-17T01:09:58;12.30;99.90
55064;DHT22;40963;52.168;21.296;2022-07-17T01:12:24;12.30;99.90
55064;DHT22;40963;52.168;21.296;2022-07-17T01:14:51;12.30;99.90
55064;DHT22;40963;52.168;21.296;2022-07-17T01:17:17;12.30;99.90
55064;DHT22;40963;52.168;21.296;2022-07-17T01:19:43;12.30;99.90
55064;DHT22;40963;52.168;21.296;2022-07-17T01:22:09;12.30;99.90
55064;DHT22;40963;52.168;21.296;2022-07-17T01:24:39;12.30;99.90
55064;DHT22;40963;52.168;21.296;2022-07-17T01:27:05;12.30;99.90
55064;DHT22;40963;52.168;21.296;2022-07-17T01:29:30;12.30;99.90
55064;DHT22;40963;52.168;21.296;2022-07-17T01:31:56;12.30;99.90
55064;DHT22;40963;52.168;21.296;2022-07-17T01:34:22;12.30;99.90
55064;DHT22;40963;52.168;21.296;2022-07-17T01:36:48;12.20;99.90
55064;DHT22;40963;52.168;21.296;2022-07-17T01:39:14;12.20;99.90
55064;DHT22;40963;52.168;21.296;2022-07-17T01:41:39;12.20;99.90
55064;DHT22;40963;52.168;21.296;2022-07-17T01:44:06;12.20;99.90
55064;DHT22;40963;52.168;21.296;2022-07-17T01:46:32;12.20;99.90
55064;DHT22;40963;52.168;21.296;2022-07-17T01:48:58;12.20;99.90
55064;DHT22;40963;52.168;21.296;2022-07-17T01:51:26;12.20;99.90
55064;DHT22;40963;52.168;21.296;2022-07-17T01:53:52;12.20;99.90
55064;DHT22;40963;52.168;21.296;2022-07-17T01:56:18;12.10;99.90
55064;DHT22;40963;52.168;21.296;2022-07-17T01:58:44;12.20;99.90
55064;DHT22;40963;52.168;21.296;2022-07-17T02:01:10;12.10;99.90
55064;DHT22;40963;52.168;21.296;2022-07-17T02:03:35;12.10;99.90
55064;DHT22;40963;52.168;21.296;2022-07-17T02:06:01;12.10;99.90
55064;DHT22;40963;52.168;21.296;2022-07-17T02:08:27;12.10;99.90
55064;DHT22;40963;52.168;21.296;2022-07-17T02:10:52;12.10;99.90
55064;DHT22;40963;52.168;21.296;2022-07-17T02:13:18;12.10;99.90
55064;DHT22;40963;52.168;21.296;2022-07-17T02:15:44;12.10;99.90
55064;DHT22;40963;52.168;21.296;2022-07-17T02:18:09;12.10;99.90
55064;DHT22;40963;52.168;21.296;2022-07-17T02:20:35;12.00;99.90
55064;DHT22;40963;52.168;21.296;2022-07-17T02:23:01;12.00;99.90
55064;DHT22;40963;52.168;21.296;2022-07-17T02:25:27;12.00;99.90
55064;DHT22;40963;52.168;21.296;2022-07-17T02:27:52;12.00;99.90
55064;DHT22;40963;52.168;21.296;2022-07-17T02:30:18;12.00;99.90
55064;DHT22;40963;52.168;21.296;2022-07-17T02:32:45;11.90;99.90
55064;DHT22;40963;52.168;21.296;2022-07-17T02:35:11;11.90;99.90
55064;DHT22;40963;52.168;21.296;2022-07-17T02:37:38;11.90;99.90
55064;DHT22;40963;52.168;21.296;2022-07-17T02:40:05;11.90;99.90
55064;DHT22;40963;52.168;21.296;2022-07-17T02:42:31;11.90;99.90
55064;DHT22;40963;52.168;21.296;2022-07-17T02:44:58;11.90;99.90
55064;DHT22;40963;52.168;21.296;2022-07-17T02:47:32;11.90;99.90
55064;DHT22;40963;52.168;21.296;2022-07-17T02:49:58;11.90;99.90
55064;DHT22;40963;52.168;21.296;2022-07-17T02:52:26;11.90;99.90
55064;DHT22;40963;52.168;21.296;2022-07-17T02:54:52;11.90;99.90
55064;DHT22;40963;52.168;21.296;2022-07-17T02:57:18;11.90;99.90
55064;DHT22;40963;52.168;21.296;2022-07-17T02:59:44;11.90;99.90
55064;DHT22;40963;52.168;21.296;2022-07-17T03:02:10;11.90;99.90
55064;DHT22;40963;52.168;21.296;2022-07-17T03:04:35;11.90;99.90
55064;DHT22;40963;52.168;21.296;2022-07-17T03:07:01;12.00;99.90
55064;DHT22;40963;52.168;21.296;2022-07-17T03:09:27;12.00;99.90
55064;DHT22;40963;52.168;21.296;2022-07-17T03:11:53;12.00;99.90
55064;DHT22;40963;52.168;21.296;2022-07-17T03:14:18;12.10;99.90
55064;DHT22;40963;52.168;21.296;2022-07-17T03:16:44;12.10;99.90
55064;DHT22;40963;52.168;21.296;2022-07-17T03:19:10;12.10;99.90
55064;DHT22;40963;52.168;21.296;2022-07-17T03:21:35;12.10;99.90
55064;DHT22;40963;52.168;21.296;2022-07-17T03:24:01;12.20;99.90
55064;DHT22;40963;52.168;21.296;2022-07-17T03:26:26;12.20;99.90
55064;DHT22;40963;52.168;21.296;2022-07-17T03:28:52;12.20;99.90
55064;DHT22;40963;52.168;21.296;2022-07-17T03:31:18;12.20;99.90
55064;DHT22;40963;52.168;21.296;2022-07-17T03:33:43;12.20;99.90
55064;DHT22;40963;52.168;21.296;2022-07-17T03:36:09;12.20;99.90
55064;DHT22;40963;52.168;21.296;2022-07-17T03:38:35;12.20;99.90
55064;DHT22;40963;52.168;21.296;2022-07-17T03:41:00;12.30;99.90
55064;DHT22;40963;52.168;21.296;2022-07-17T03:43:26;12.30;99.90
55064;DHT22;40963;52.168;21.296;2022-07-17T03:45:52;12.30;99.90
55064;DHT22;40963;52.168;21.296;2022-07-17T03:48:17;12.30;99.90
55064;DHT22;40963;52.168;21.296;2022-07-17T03:50:44;12.30;99.90
55064;DHT22;40963;52.168;21.296;2022-07-17T03:53:10;12.30;99.90
55064;DHT22;40963;52.168;21.296;2022-07-17T03:55:35;12.30;99.90
55064;DHT22;40963;52.168;21.296;2022-07-17T03:58:03;12.30;99.90
55064;DHT22;40963;52.168;21.296;2022-07-17T04:00:29;12.40;99.90
55064;DHT22;40963;52.168;21.296;2022-07-17T04:02:55;12.40;99.90
55064;DHT22;40963;52.168;21.296;2022-07-17T04:05:21;12.40;99.90
55064;DHT22;40963;52.168;21.296;2022-07-17T04:07:46;12.40;99.90
55064;DHT22;40963;52.168;21.296;2022-07-17T04:10:13;12.50;99.90
55064;DHT22;40963;52.168;21.296;2022-07-17T04:12:39;12.50;99.90
55064;DHT22;40963;52.168;21.296;2022-07-17T04:15:08;12.50;99.90
55064;DHT22;40963;52.168;21.296;2022-07-17T04:17:34;12.50;99.90
55064;DHT22;40963;52.168;21.296;2022-07-17T04:20:00;12.50;99.90
55064;DHT22;40963;52.168;21.296;2022-07-17T04:22:25;12.60;99.90
55064;DHT22;40963;52.168;21.296;2022-07-17T04:24:51;12.60;99.90
55064;DHT22;40963;52.168;21.296;2022-07-17T04:27:17;12.60;99.90
55064;DHT22;40963;52.168;21.296;2022-07-17T04:29:43;12.70;99.90
55064;DHT22;40963;52.168;21.296;2022-07-17T04:32:09;12.70;99.90
55064;DHT22;40963;52.168;21.296;2022-07-17T04:34:34;12.80;99.90
55064;DHT22;40963;52.168;21.296;2022-07-17T04:37:01;12.80;99.90
55064;DHT22;40963;52.168;21.296;2022-07-17T04:39:27;12.90;99.90
55064;DHT22;40963;52.168;21.296;2022-07-17T04:41:53;12.90;99.90
55064;DHT22;40963;52.168;21.296;2022-07-17T04:44:19;12.90;99.90
55064;DHT22;40963;52.168;21.296;2022-07-17T04:46:45;12.90;99.90
55064;DHT22;40963;52.168;21.296;2022-07-17T04:49:11;12.90;99.90
55064;DHT22;40963;52.168;21.296;2022-07-17T04:51:36;12.90;99.90
55064;DHT22;40963;52.168;21.296;2022-07-17T04:54:02;12.90;99.90
55064;DHT22;40963;52.168;21.296;2022-07-17T04:56:28;12.90;99.90
55064;DHT22;40963;52.168;21.296;2022-07-17T04:58:53;12.90;99.90
55064;DHT22;40963;52.168;21.296;2022-07-17T05:01:19;12.90;99.90
55064;DHT22;40963;52.168;21.296;2022-07-17T05:03:45;13.00;99.90
55064;DHT22;40963;52.168;21.296;2022-07-17T05:06:10;13.00;99.90
55064;DHT22;40963;52.168;21.296;2022-07-17T05:08:37;13.00;99.90
55064;DHT22;40963;52.168;21.296;2022-07-17T05:11:02;13.00;99.90
55064;DHT22;40963;52.168;21.296;2022-07-17T05:13:28;13.00;99.90
55064;DHT22;40963;52.168;21.296;2022-07-17T05:15:54;13.00;99.90
55064;DHT22;40963;52.168;21.296;2022-07-17T05:18:20;13.00;99.90
55064;DHT22;40963;52.168;21.296;2022-07-17T05:20:45;13.00;99.90
55064;DHT22;40963;52.168;21.296;2022-07-17T05:23:11;13.00;99.90
55064;DHT22;40963;52.168;21.296;2022-07-17T05:25:37;13.10;99.90
55064;DHT22;40963;52.168;21.296;2022-07-17T05:28:02;13.00;99.90
55064;DHT22;40963;52.168;21.296;2022-07-17T05:30:29;13.10;99.90
55064;DHT22;40963;52.168;21.296;2022-07-17T05:32:54;13.10;99.90
55064;DHT22;40963;52.168;21.296;2022-07-17T05:35:20;13.10;99.90
55064;DHT22;40963;52.168;21.296;2022-07-17T05:37:46;13.10;99.90
55064;DHT22;40963;52.168;21.296;2022-07-17T05:40:12;13.10;99.90
55064;DHT22;40963;52.168;21.296;2022-07-17T05:42:38;13.20;99.90
55064;DHT22;40963;52.168;21.296;2022-07-17T05:45:04;13.20;99.90
55064;DHT22;40963;52.168;21.296;2022-07-17T05:47:30;13.30;99.90
55064;DHT22;40963;52.168;21.296;2022-07-17T05:49:56;13.40;99.90
55064;DHT22;40963;52.168;21.296;2022-07-17T05:52:21;13.50;99.90
55064;DHT22;40963;52.168;21.296;2022-07-17T05:54:47;13.50;99.90
55064;DHT22;40963;52.168;21.296;2022-07-17T05:57:13;13.60;99.90
55064;DHT22;40963;52.168;21.296;2022-07-17T05:59:38;13.70;99.90
55064;DHT22;40963;52.168;21.296;2022-07-17T06:02:05;13.80;99.90
55064;DHT22;40963;52.168;21.296;2022-07-17T06:04:31;13.90;99.90
55064;DHT22;40963;52.168;21.296;2022-07-17T06:06:56;13.90;99.90
55064;DHT22;40963;52.168;21.296;2022-07-17T06:09:22;13.90;99.90
55064;DHT22;40963;52.168;21.296;2022-07-17T06:11:48;14.00;99.90
55064;DHT22;40963;52.168;21.296;2022-07-17T06:14:16;14.00;99.90
55064;DHT22;40963;52.168;21.296;2022-07-17T06:16:41;14.10;99.90
55064;DHT22;40963;52.168;21.296;2022-07-17T06:19:07;14.20;99.90
55064;DHT22;40963;52.168;21.296;2022-07-17T06:21:35;14.30;99.90
55064;DHT22;40963;52.168;21.296;2022-07-17T06:24:01;14.40;99.90
55064;DHT22;40963;52.168;21.296;2022-07-17T06:26:26;14.50;99.90
55064;DHT22;40963;52.168;21.296;2022-07-17T06:28:52;14.60;99.90
55064;DHT22;40963;52.168;21.296;2022-07-17T06:31:18;14.70;99.90
55064;DHT22;40963;52.168;21.296;2022-07-17T06:33:43;14.80;99.90
55064;DHT22;40963;52.168;21.296;2022-07-17T06:36:09;14.80;99.90
55064;DHT22;40963;52.168;21.296;2022-07-17T06:38:35;14.90;99.90
55064;DHT22;40963;52.168;21.296;2022-07-17T06:41:01;14.90;99.90
55064;DHT22;40963;52.168;21.296;2022-07-17T06:43:27;15.00;99.90
55064;DHT22;40963;52.168;21.296;2022-07-17T06:45:53;15.10;99.90
55064;DHT22;40963;52.168;21.296;2022-07-17T06:48:20;15.20;99.90
55064;DHT22;40963;52.168;21.296;2022-07-17T06:50:46;15.30;99.90
55064;DHT22;40963;52.168;21.296;2022-07-17T06:53:12;15.40;99.90
55064;DHT22;40963;52.168;21.296;2022-07-17T06:55:39;15.50;99.90
55064;DHT22;40963;52.168;21.296;2022-07-17T06:58:04;15.70;99.90
55064;DHT22;40963;52.168;21.296;2022-07-17T07:00:30;15.80;99.90
55064;DHT22;40963;52.168;21.296;2022-07-17T07:02:56;15.90;99.90
55064;DHT22;40963;52.168;21.296;2022-07-17T07:05:22;16.00;99.90
55064;DHT22;40963;52.168;21.296;2022-07-17T07:07:48;16.00;99.90
55064;DHT22;40963;52.168;21.296;2022-07-17T07:10:13;16.10;99.90
55064;DHT22;40963;52.168;21.296;2022-07-17T07:12:39;16.10;99.90
55064;DHT22;40963;52.168;21.296;2022-07-17T07:15:05;16.10;99.90
55064;DHT22;40963;52.168;21.296;2022-07-17T07:17:34;16.10;99.90
55064;DHT22;40963;52.168;21.296;2022-07-17T07:20:01;16.10;99.90
55064;DHT22;40963;52.168;21.296;2022-07-17T07:22:27;16.10;99.90
55064;DHT22;40963;52.168;21.296;2022-07-17T07:24:53;16.10;99.90
55064;DHT22;40963;52.168;21.296;2022-07-17T07:27:18;16.20;99.90
55064;DHT22;40963;52.168;21.296;2022-07-17T07:29:44;16.20;99.90
55064;DHT22;40963;52.168;21.296;2022-07-17T07:32:09;16.30;99.90
55064;DHT22;40963;52.168;21.296;2022-07-17T07:34:35;16.30;99.90
55064;DHT22;40963;52.168;21.296;2022-07-17T07:37:01;16.40;99.90
55064;DHT22;40963;52.168;21.296;2022-07-17T07:39:27;16.40;99.90
55064;DHT22;40963;52.168;21.296;2022-07-17T07:41:52;16.50;99.80
55064;DHT22;40963;52.168;21.296;2022-07-17T07:44:18;16.60;99.60
55064;DHT22;40963;52.168;21.296;2022-07-17T07:46:44;16.70;99.40
55064;DHT22;40963;52.168;21.296;2022-07-17T07:49:09;16.80;99.40
55064;DHT22;40963;52.168;21.296;2022-07-17T07:51:35;16.90;99.00
55064;DHT22;40963;52.168;21.296;2022-07-17T07:54:01;16.90;98.60
55064;DHT22;40963;52.168;21.296;2022-07-17T07:56:27;16.90;98.60
55064;DHT22;40963;52.168;21.296;2022-07-17T07:58:53;16.90;98.80
55064;DHT22;40963;52.168;21.296;2022-07-17T08:01:18;16.80;98.90
55064;DHT22;40963;52.168;21.296;2022-07-17T08:03:44;17.00;99.00
55064;DHT22;40963;52.168;21.296;2022-07-17T08:06:10;16.90;98.80
55064;DHT22;40963;52.168;21.296;2022-07-17T08:08:36;16.90;98.80
55064;DHT22;40963;52.168;21.296;2022-07-17T08:11:01;16.90;98.60
55064;DHT22;40963;52.168;21.296;2022-07-17T08:13:27;16.90;98.60
55064;DHT22;40963;52.168;21.296;2022-07-17T08:15:52;16.90;98.80
55064;DHT22;40963;52.168;21.296;2022-07-17T08:18:18;17.00;99.00
55064;DHT22;40963;52.168;21.296;2022-07-17T08:20:44;17.00;98.80
55064;DHT22;40963;52.168;21.296;2022-07-17T08:23:09;17.10;98.80
55064;DHT22;40963;52.168;21.296;2022-07-17T08:25:35;17.20;99.10
55064;DHT22;40963;52.168;21.296;2022-07-17T08:28:02;17.20;98.70
55064;DHT22;40963;52.168;21.296;2022-07-17T08:30:27;17.30;98.50
55064;DHT22;40963;52.168;21.296;2022-07-17T08:32:53;17.30;98.40
55064;DHT22;40963;52.168;21.296;2022-07-17T08:35:19;17.30;98.20
55064;DHT22;40963;52.168;21.296;2022-07-17T08:37:46;17.20;98.10
55064;DHT22;40963;52.168;21.296;2022-07-17T08:40:36;17.20;98.60
55064;DHT22;40963;52.168;21.296;2022-07-17T08:43:04;17.30;98.60
55064;DHT22;40963;52.168;21.296;2022-07-17T08:45:29;17.40;98.50
55064;DHT22;40963;52.168;21.296;2022-07-17T08:47:56;17.60;98.70
55064;DHT22;40963;52.168;21.296;2022-07-17T08:50:25;17.80;98.40
55064;DHT22;40963;52.168;21.296;2022-07-17T08:52:50;17.90;97.80
55064;DHT22;40963;52.168;21.296;2022-07-17T08:55:16;18.00;97.40
55064;DHT22;40963;52.168;21.296;2022-07-17T08:57:43;18.20;97.00
55064;DHT22;40963;52.168;21.296;2022-07-17T09:00:11;18.20;96.50
55064;DHT22;40963;52.168;21.296;2022-07-17T09:02:38;18.40;96.50
55064;DHT22;40963;52.168;21.296;2022-07-17T09:05:04;18.50;96.10
55064;DHT22;40963;52.168;21.296;2022-07-17T09:07:31;18.60;95.30
55064;DHT22;40963;52.168;21.296;2022-07-17T09:09:57;18.70;95.20
55064;DHT22;40963;52.168;21.296;2022-07-17T09:12:26;18.80;95.00
55064;DHT22;40963;52.168;21.296;2022-07-17T09:14:52;18.90;94.70
55064;DHT22;40963;52.168;21.296;2022-07-17T09:17:18;19.00;94.30
55064;DHT22;40963;52.168;21.296;2022-07-17T09:19:44;19.00;93.70
55064;DHT22;40963;52.168;21.296;2022-07-17T09:22:18;19.10;93.00
55064;DHT22;40963;52.168;21.296;2022-07-17T09:24:49;19.10;92.60
55064;DHT22;40963;52.168;21.296;2022-07-17T09:27:30;19.10;92.20
55064;DHT22;40963;52.168;21.296;2022-07-17T09:32:34;19.10;90.80
55064;DHT22;40963;52.168;21.296;2022-07-17T09:35:00;19.10;90.30
55064;DHT22;40963;52.168;21.296;2022-07-17T09:37:29;19.00;90.00
55064;DHT22;40963;52.168;21.296;2022-07-17T09:39:56;19.00;90.30
55064;DHT22;40963;52.168;21.296;2022-07-17T09:42:32;19.00;90.00
55064;DHT22;40963;52.168;21.296;2022-07-17T09:45:04;19.00;90.00
55064;DHT22;40963;52.168;21.296;2022-07-17T09:47:32;19.00;89.90
55064;DHT22;40963;52.168;21.296;2022-07-17T09:49:59;18.90;89.70
55064;DHT22;40963;52.168;21.296;2022-07-17T09:52:28;18.90;89.20
55064;DHT22;40963;52.168;21.296;2022-07-17T09:54:56;18.90;89.40
55064;DHT22;40963;52.168;21.296;2022-07-17T09:57:30;18.90;89.60
55064;DHT22;40963;52.168;21.296;2022-07-17T09:59:59;19.00;90.20
55064;DHT22;40963;52.168;21.296;2022-07-17T10:02:25;19.20;90.30
55064;DHT22;40963;52.168;21.296;2022-07-17T10:04:52;19.20;89.20
55064;DHT22;40963;52.168;21.296;2022-07-17T10:07:18;19.20;88.10
55064;DHT22;40963;52.168;21.296;2022-07-17T10:09:45;19.10;86.90
55064;DHT22;40963;52.168;21.296;2022-07-17T10:12:11;19.00;86.50
55064;DHT22;40963;52.168;21.296;2022-07-17T10:14:37;18.90;87.10
55064;DHT22;40963;52.168;21.296;2022-07-17T10:17:12;18.80;87.80
55064;DHT22;40963;52.168;21.296;2022-07-17T10:20:04;18.80;88.60
55064;DHT22;40963;52.168;21.296;2022-07-17T10:22:44;18.80;89.90
55064;DHT22;40963;52.168;21.296;2022-07-17T10:25:14;18.80;90.00
55064;DHT22;40963;52.168;21.296;2022-07-17T10:27:47;18.90;89.30
55064;DHT22;40963;52.168;21.296;2022-07-17T10:30:13;19.10;87.40
55064;DHT22;40963;52.168;21.296;2022-07-17T10:32:54;19.20;85.60
55064;DHT22;40963;52.168;21.296;2022-07-17T10:35:20;19.20;83.60
55064;DHT22;40963;52.168;21.296;2022-07-17T10:37:46;19.20;82.70
55064;DHT22;40963;52.168;21.296;2022-07-17T10:40:24;19.10;81.00
55064;DHT22;40963;52.168;21.296;2022-07-17T10:45:20;19.10;81.40
55064;DHT22;40963;52.168;21.296;2022-07-17T10:48:00;19.20;82.50
55064;DHT22;40963;52.168;21.296;2022-07-17T10:50:40;19.50;82.40
55064;DHT22;40963;52.168;21.296;2022-07-17T10:53:31;19.70;81.20
55064;DHT22;40963;52.168;21.296;2022-07-17T10:55:56;20.00;79.80
55064;DHT22;40963;52.168;21.296;2022-07-17T10:58:45;20.00;76.90
55064;DHT22;40963;52.168;21.296;2022-07-17T11:01:16;20.00;75.10
55064;DHT22;40963;52.168;21.296;2022-07-17T11:03:43;19.90;74.20
55064;DHT22;40963;52.168;21.296;2022-07-17T11:08:55;19.60;73.50
55064;DHT22;40963;52.168;21.296;2022-07-17T11:11:43;19.50;73.80
55064;DHT22;40963;52.168;21.296;2022-07-17T11:19:10;19.40;76.20
55064;DHT22;40963;52.168;21.296;2022-07-17T11:21:46;19.40;76.20
55064;DHT22;40963;52.168;21.296;2022-07-17T11:24:12;19.30;74.50
55064;DHT22;40963;52.168;21.296;2022-07-17T11:26:38;19.20;73.80
55064;DHT22;40963;52.168;21.296;2022-07-17T11:29:04;19.10;73.00
55064;DHT22;40963;52.168;21.296;2022-07-17T11:31:30;19.10;72.80
55064;DHT22;40963;52.168;21.296;2022-07-17T11:34:01;19.10;72.90
55064;DHT22;40963;52.168;21.296;2022-07-17T11:36:35;19.10;73.00
55064;DHT22;40963;52.168;21.296;2022-07-17T11:39:04;19.10;73.30
55064;DHT22;40963;52.168;21.296;2022-07-17T11:41:41;19.10;73.80
55064;DHT22;40963;52.168;21.296;2022-07-17T11:44:12;19.10;74.00
55064;DHT22;40963;52.168;21.296;2022-07-17T11:46:40;19.10;74.30
55064;DHT22;40963;52.168;21.296;2022-07-17T11:49:06;19.10;74.30
55064;DHT22;40963;52.168;21.296;2022-07-17T11:51:43;19.10;74.30
55064;DHT22;40963;52.168;21.296;2022-07-17T11:54:11;19.10;74.30
55064;DHT22;40963;52.168;21.296;2022-07-17T11:56:38;19.10;74.50
55064;DHT22;40963;52.168;21.296;2022-07-17T11:59:04;19.20;74.90
55064;DHT22;40963;52.168;21.296;2022-07-17T12:01:42;19.30;75.00
55064;DHT22;40963;52.168;21.296;2022-07-17T12:04:10;19.40;74.90
55064;DHT22;40963;52.168;21.296;2022-07-17T12:06:36;19.60;75.00
55064;DHT22;40963;52.168;21.296;2022-07-17T12:09:02;19.70;74.00
55064;DHT22;40963;52.168;21.296;2022-07-17T12:11:28;19.70;73.40
55064;DHT22;40963;52.168;21.296;2022-07-17T12:13:54;19.70;72.00
55064;DHT22;40963;52.168;21.296;2022-07-17T12:16:25;19.70;70.70
55064;DHT22;40963;52.168;21.296;2022-07-17T12:19:11;19.60;69.90
55064;DHT22;40963;52.168;21.296;2022-07-17T12:24:28;19.50;70.30
55064;DHT22;40963;52.168;21.296;2022-07-17T12:26:56;19.40;70.80
55064;DHT22;40963;52.168;21.296;2022-07-17T12:29:22;19.40;71.10
55064;DHT22;40963;52.168;21.296;2022-07-17T12:31:48;19.40;71.60
55064;DHT22;40963;52.168;21.296;2022-07-17T12:34:14;19.40;72.00
55064;DHT22;40963;52.168;21.296;2022-07-17T12:36:39;19.40;71.90
55064;DHT22;40963;52.168;21.296;2022-07-17T12:39:05;19.60;72.30
55064;DHT22;40963;52.168;21.296;2022-07-17T12:41:31;19.70;71.90
55064;DHT22;40963;52.168;21.296;2022-07-17T12:43:57;19.80;70.90
55064;DHT22;40963;52.168;21.296;2022-07-17T12:46:25;19.90;69.60
55064;DHT22;40963;52.168;21.296;2022-07-17T12:48:50;19.90;68.80
55064;DHT22;40963;52.168;21.296;2022-07-17T12:51:17;20.00;68.00
55064;DHT22;40963;52.168;21.296;2022-07-17T12:53:43;20.10;67.30
55064;DHT22;40963;52.168;21.296;2022-07-17T12:56:09;20.10;66.20
55064;DHT22;40963;52.168;21.296;2022-07-17T12:58:36;20.20;66.10
55064;DHT22;40963;52.168;21.296;2022-07-17T13:01:03;20.40;66.10
55064;DHT22;40963;52.168;21.296;2022-07-17T13:03:30;20.40;65.10
55064;DHT22;40963;52.168;21.296;2022-07-17T13:05:56;20.40;64.70
55064;DHT22;40963;52.168;21.296;2022-07-17T13:08:21;20.30;64.30
55064;DHT22;40963;52.168;21.296;2022-07-17T13:10:47;20.20;63.80
55064;DHT22;40963;52.168;21.296;2022-07-17T13:13:13;20.10;63.70
55064;DHT22;40963;52.168;21.296;2022-07-17T13:15:38;20.10;64.20
55064;DHT22;40963;52.168;21.296;2022-07-17T13:18:04;20.00;63.90
55064;DHT22;40963;52.168;21.296;2022-07-17T13:20:30;19.90;63.80
55064;DHT22;40963;52.168;21.296;2022-07-17T13:22:55;19.90;63.90
55064;DHT22;40963;52.168;21.296;2022-07-17T13:25:21;19.80;63.90
55064;DHT22;40963;52.168;21.296;2022-07-17T13:27:47;19.80;63.50
55064;DHT22;40963;52.168;21.296;2022-07-17T13:30:12;19.80;63.50
55064;DHT22;40963;52.168;21.296;2022-07-17T13:32:38;19.80;63.50
55064;DHT22;40963;52.168;21.296;2022-07-17T13:35:05;19.90;63.70
55064;DHT22;40963;52.168;21.296;2022-07-17T13:37:31;19.90;63.60
55064;DHT22;40963;52.168;21.296;2022-07-17T13:39:57;20.00;63.50
55064;DHT22;40963;52.168;21.296;2022-07-17T13:42:23;20.00;63.70
55064;DHT22;40963;52.168;21.296;2022-07-17T13:44:49;20.10;63.90
55064;DHT22;40963;52.168;21.296;2022-07-17T13:47:14;20.00;63.40
55064;DHT22;40963;52.168;21.296;2022-07-17T13:49:40;20.00;63.30
55064;DHT22;40963;52.168;21.296;2022-07-17T13:52:06;19.90;64.10
55064;DHT22;40963;52.168;21.296;2022-07-17T13:54:32;19.90;65.30
55064;DHT22;40963;52.168;21.296;2022-07-17T13:56:58;19.90;65.30
55064;DHT22;40963;52.168;21.296;2022-07-17T13:59:25;19.80;65.30
55064;DHT22;40963;52.168;21.296;2022-07-17T14:01:51;19.70;65.70
55064;DHT22;40963;52.168;21.296;2022-07-17T14:04:17;19.70;66.30
55064;DHT22;40963;52.168;21.296;2022-07-17T14:06:43;19.60;67.10
55064;DHT22;40963;52.168;21.296;2022-07-17T14:09:09;19.50;67.30
55064;DHT22;40963;52.168;21.296;2022-07-17T14:11:35;19.50;67.60
55064;DHT22;40963;52.168;21.296;2022-07-17T14:14:02;19.40;68.10
55064;DHT22;40963;52.168;21.296;2022-07-17T14:16:27;19.30;68.20
55064;DHT22;40963;52.168;21.296;2022-07-17T14:18:53;19.30;68.60
55064;DHT22;40963;52.168;21.296;2022-07-17T14:21:29;19.20;69.10
55064;DHT22;40963;52.168;21.296;2022-07-17T14:23:55;19.20;69.50
55064;DHT22;40963;52.168;21.296;2022-07-17T14:26:21;19.10;69.80
55064;DHT22;40963;52.168;21.296;2022-07-17T14:28:46;19.10;70.10
55064;DHT22;40963;52.168;21.296;2022-07-17T14:31:12;19.10;70.10
55064;DHT22;40963;52.168;21.296;2022-07-17T14:33:38;19.10;70.30
55064;DHT22;40963;52.168;21.296;2022-07-17T14:36:04;19.10;70.40
55064;DHT22;40963;52.168;21.296;2022-07-17T14:38:29;19.10;70.90
55064;DHT22;40963;52.168;21.296;2022-07-17T14:40:55;19.10;71.40
55064;DHT22;40963;52.168;21.296;2022-07-17T14:43:21;19.10;71.80
55064;DHT22;40963;52.168;21.296;2022-07-17T14:45:47;19.10;72.00
55064;DHT22;40963;52.168;21.296;2022-07-17T14:48:13;19.10;72.40
55064;DHT22;40963;52.168;21.296;2022-07-17T14:50:39;19.10;72.40
55064;DHT22;40963;52.168;21.296;2022-07-17T14:53:05;19.10;73.00
55064;DHT22;40963;52.168;21.296;2022-07-17T14:55:30;19.10;73.40
55064;DHT22;40963;52.168;21.296;2022-07-17T14:57:56;19.10;73.40
55064;DHT22;40963;52.168;21.296;2022-07-17T15:00:22;19.10;73.40
55064;DHT22;40963;52.168;21.296;2022-07-17T15:02:47;19.10;73.10
55064;DHT22;40963;52.168;21.296;2022-07-17T15:05:13;19.00;73.20
55064;DHT22;40963;52.168;21.296;2022-07-17T15:07:39;19.10;73.70
55064;DHT22;40963;52.168;21.296;2022-07-17T15:10:04;19.10;73.70
55064;DHT22;40963;52.168;21.296;2022-07-17T15:12:30;19.20;73.70
55064;DHT22;40963;52.168;21.296;2022-07-17T15:14:56;19.20;74.00
55064;DHT22;40963;52.168;21.296;2022-07-17T15:17:21;19.20;74.40
55064;DHT22;40963;52.168;21.296;2022-07-17T15:19:47;19.20;75.20
55064;DHT22;40963;52.168;21.296;2022-07-17T15:22:13;19.20;75.20
55064;DHT22;40963;52.168;21.296;2022-07-17T15:24:38;19.20;75.10
55064;DHT22;40963;52.168;21.296;2022-07-17T15:27:04;19.30;76.10
55064;DHT22;40963;52.168;21.296;2022-07-17T15:29:30;19.40;76.20